Аэропорт: Храброво. Калининград

ICAO: UMKK

METAR:
2019-09-21 16:00:00
UMKK 211600Z 27006MPS 9999 BKN013 14/12 Q1018 R24/CLRD95 NOSIG RMK QFE762/1016
METAR:
2019-09-21 13:57:00
TAF UMKK 211357Z 2115/2215 28009G14MPS 6000 FEW005 BKN011 TEMPO 2115/2119 BKN005 BKN011 BECMG 2117/2119 27006G11MPS TEMPO 2119/2208 22003G08MPS 3100 BR BKN004 BKN011 BECMG 2211/2213 VRB01MPS